Time;durP1;ratioP1;P1;durP2;ratioP2;P2;SDS_P1;SDS_P2;PMS_P1;PMS_P2;Temp;Humidity;BMP_temperature;BMP_pressure;BME280_temperature;BME280_humidity;BME280_pressure;Samples;Min_cycle;Max_cycle;Signal;HPM_P1;HPM_P2
2022/05/15 00:02:06;;;;;;;27.35;6.13;;;11.20;99.90;;;;;;4998465;28;20053;-86
2022/05/15 00:04:32;;;;;;;25.33;6.43;;;11.10;99.90;;;;;;4998199;28;20108;-86
2022/05/15 00:06:57;;;;;;;22.42;6.50;;;11.10;99.90;;;;;;4998172;28;20478;-86
2022/05/15 00:09:23;;;;;;;23.63;7.22;;;11.10;99.90;;;;;;4998254;28;20046;-87
2022/05/15 00:11:49;;;;;;;23.98;6.18;;;10.80;99.90;;;;;;4998153;28;20046;-87
2022/05/15 00:14:15;;;;;;;21.00;6.05;;;10.70;99.90;;;;;;4981915;28;20061;-87
2022/05/15 00:16:41;;;;;;;25.08;5.93;;;10.60;99.90;;;;;;4981588;28;20381;-87
2022/05/15 00:19:07;;;;;;;18.48;6.38;;;10.50;99.90;;;;;;4998434;28;20119;-86
2022/05/15 00:21:33;;;;;;;23.10;6.22;;;10.50;99.90;;;;;;4982444;28;20051;-87
2022/05/15 00:23:59;;;;;;;24.48;6.60;;;10.40;99.90;;;;;;4997798;28;20107;-87
2022/05/15 00:26:26;;;;;;;23.23;7.43;;;10.40;99.90;;;;;;4997849;28;20052;-87
2022/05/15 00:28:52;;;;;;;25.30;6.53;;;10.40;99.90;;;;;;4997754;28;20574;-86
2022/05/15 00:31:18;;;;;;;26.75;7.03;;;10.30;99.90;;;;;;4997972;28;20137;-87
2022/05/15 00:33:44;;;;;;;20.80;6.20;;;10.30;99.90;;;;;;4997967;28;20449;-87
2022/05/15 00:36:10;;;;;;;28.35;7.38;;;10.40;99.90;;;;;;4997510;28;20053;-86
2022/05/15 00:38:36;;;;;;;22.52;7.15;;;10.70;99.90;;;;;;5015376;28;20045;-87
2022/05/15 00:41:02;;;;;;;25.38;6.68;;;10.20;99.90;;;;;;5015359;28;20128;-87
2022/05/15 00:43:39;;;;;;;27.92;6.93;;;10.30;99.90;;;;;;4997679;28;20070;-87
2022/05/15 00:46:11;;;;;;;28.60;6.88;;;10.20;99.90;;;;;;5015272;28;20053;-87
2022/05/15 00:48:37;;;;;;;22.45;6.97;;;10.20;99.90;;;;;;4981351;28;20410;-87
2022/05/15 00:51:09;;;;;;;24.63;6.60;;;10.20;99.90;;;;;;4997327;28;20132;-86
2022/05/15 00:53:36;;;;;;;25.85;6.40;;;10.20;99.90;;;;;;4997145;28;20543;-87
2022/05/15 00:56:03;;;;;;;22.65;6.35;;;10.30;99.90;;;;;;4997680;28;20045;-86
2022/05/15 00:58:35;;;;;;;19.65;6.88;;;10.20;99.90;;;;;;4997685;28;20386;-87
2022/05/15 01:01:04;;;;;;;23.88;7.38;;;10.20;99.90;;;;;;4997506;28;20497;-87
2022/05/15 01:03:29;;;;;;;23.17;6.68;;;10.30;99.90;;;;;;4997039;28;20119;-87
2022/05/15 01:05:56;;;;;;;23.83;6.65;;;10.20;99.90;;;;;;5000110;28;20046;-86
2022/05/15 01:08:24;;;;;;;24.52;7.30;;;10.20;99.90;;;;;;5009915;28;20077;-86
2022/05/15 01:10:56;;;;;;;27.33;7.10;;;10.20;99.90;;;;;;4999960;28;20041;-86
2022/05/15 01:13:24;;;;;;;22.85;7.13;;;10.20;99.90;;;;;;5015537;28;20050;-86
2022/05/15 01:15:50;;;;;;;23.17;7.68;;;10.20;99.90;;;;;;4996934;28;20050;-87
2022/05/15 01:18:23;;;;;;;25.30;6.50;;;10.30;99.90;;;;;;5014615;28;20088;-86
2022/05/15 01:20:56;;;;;;;28.98;7.35;;;10.00;99.90;;;;;;4980651;28;20089;-86
2022/05/15 01:23:23;;;;;;;19.05;6.47;;;10.00;99.90;;;;;;4980996;28;20485;-86
2022/05/15 01:25:49;;;;;;;21.75;6.53;;;9.90;99.90;;;;;;5014441;28;20573;-86
2022/05/15 01:28:22;;;;;;;25.75;8.00;;;9.80;99.90;;;;;;4996054;28;20129;-86
2022/05/15 01:30:50;;;;;;;21.17;6.68;;;9.70;99.90;;;;;;4980529;28;20049;-87
2022/05/15 01:33:16;;;;;;;24.60;7.60;;;9.80;99.90;;;;;;4996658;28;20056;-87
2022/05/15 01:35:42;;;;;;;22.75;7.15;;;9.80;99.90;;;;;;4980700;28;20041;-87
2022/05/15 01:38:08;;;;;;;28.35;6.93;;;9.80;99.90;;;;;;4996804;28;20485;-87
2022/05/15 01:40:35;;;;;;;25.60;6.57;;;9.80;99.90;;;;;;4996937;28;20045;-86
2022/05/15 01:43:02;;;;;;;22.60;6.45;;;9.80;99.90;;;;;;4980537;28;20053;-87
2022/05/15 01:45:28;;;;;;;25.08;7.40;;;9.90;99.90;;;;;;4996396;28;20077;-86
2022/05/15 01:47:54;;;;;;;22.83;6.57;;;9.70;99.90;;;;;;5014251;28;20390;-86
2022/05/15 01:50:19;;;;;;;26.75;6.50;;;9.80;99.90;;;;;;4996390;28;20067;-87
2022/05/15 01:52:45;;;;;;;21.05;6.65;;;9.70;99.90;;;;;;4996437;28;20050;-86
2022/05/15 01:55:12;;;;;;;21.25;6.45;;;10.10;99.90;;;;;;4980298;28;20042;-87
2022/05/15 01:57:38;;;;;;;24.35;6.85;;;9.60;99.90;;;;;;4996414;28;20049;-86
2022/05/15 02:00:07;;;;;;;27.05;6.70;;;9.80;99.90;;;;;;4996205;28;20397;-86
2022/05/15 02:02:33;;;;;;;25.27;6.65;;;9.50;99.90;;;;;;4996451;28;20038;-87
2022/05/15 02:04:59;;;;;;;27.20;7.30;;;9.70;99.90;;;;;;4996269;28;20112;-87
2022/05/15 02:07:24;;;;;;;27.95;6.95;;;9.70;99.90;;;;;;4996448;28;20409;-86
2022/05/15 02:09:50;;;;;;;22.48;7.45;;;9.40;99.90;;;;;;4996403;28;20127;-87
2022/05/15 02:12:16;;;;;;;22.20;7.07;;;9.40;99.90;;;;;;4996313;28;20068;-87
2022/05/15 02:14:41;;;;;;;28.17;7.53;;;9.30;99.90;;;;;;4996339;28;20038;-86
2022/05/15 02:17:07;;;;;;;23.58;6.93;;;9.40;99.90;;;;;;4980312;28;20092;-87
2022/05/15 02:19:33;;;;;;;23.13;6.55;;;9.40;99.90;;;;;;4980193;28;20046;-86
2022/05/15 02:21:58;;;;;;;21.80;7.05;;;9.30;99.90;;;;;;5013783;28;20359;-87
2022/05/15 02:24:24;;;;;;;28.27;7.00;;;9.30;99.90;;;;;;4996213;28;20050;-86
2022/05/15 02:26:51;;;;;;;23.45;8.25;;;9.40;99.90;;;;;;4996246;28;20397;-86
2022/05/15 02:29:17;;;;;;;22.48;6.97;;;9.50;99.90;;;;;;4996249;28;20087;-86
2022/05/15 02:31:42;;;;;;;25.35;7.70;;;9.60;99.90;;;;;;4996145;28;20124;-86
2022/05/15 02:34:08;;;;;;;26.17;7.97;;;9.80;99.90;;;;;;5013671;28;20089;-86
2022/05/15 02:36:34;;;;;;;22.25;7.32;;;9.20;99.90;;;;;;4996060;28;20042;-87
2022/05/15 02:39:00;;;;;;;29.65;7.72;;;9.20;99.90;;;;;;4996201;28;20048;-86
2022/05/15 02:41:26;;;;;;;25.95;7.13;;;9.20;99.90;;;;;;4983488;28;20058;-86
2022/05/15 02:43:52;;;;;;;22.48;7.50;;;9.10;99.90;;;;;;4999808;28;20046;-86
2022/05/15 02:46:18;;;;;;;30.33;7.47;;;9.10;99.90;;;;;;4999795;28;20052;-86
2022/05/15 02:51:28;;;;;;;26.10;7.13;;;9.10;99.90;;;;;;5001467;28;20073;-86
2022/05/15 02:53:53;;;;;;;21.50;7.22;;;9.40;99.90;;;;;;4993228;28;20445;-86
2022/05/15 02:56:28;;;;;;;28.10;6.85;;;9.30;99.90;;;;;;5008064;28;20072;-86
2022/05/15 02:58:54;;;;;;;21.27;7.05;;;9.00;99.90;;;;;;5024338;28;20045;-86
2022/05/15 03:01:20;;;;;;;25.13;7.75;;;8.90;99.90;;;;;;5017248;28;20048;-86
2022/05/15 03:03:45;;;;;;;22.90;6.28;;;8.90;99.90;;;;;;4999639;28;20070;-86
2022/05/15 03:06:12;;;;;;;19.70;6.60;;;8.90;99.90;;;;;;4999212;28;20486;-86
2022/05/15 03:08:41;;;;;;;17.52;6.88;;;8.90;99.90;;;;;;5016997;28;20061;-86
2022/05/15 03:11:08;;;;;;;21.75;6.88;;;8.90;99.90;;;;;;4983089;28;20545;-86
2022/05/15 03:13:35;;;;;;;24.00;7.28;;;9.10;99.90;;;;;;4999157;28;20042;-86
2022/05/15 03:16:02;;;;;;;25.60;6.97;;;8.90;99.90;;;;;;4999807;28;20060;-86
2022/05/15 03:18:27;;;;;;;25.15;6.85;;;9.10;99.90;;;;;;4999162;28;20502;-85
2022/05/15 03:20:53;;;;;;;26.92;7.97;;;9.00;99.90;;;;;;4999018;28;20045;-86
2022/05/15 03:23:18;;;;;;;24.65;7.43;;;8.80;99.90;;;;;;5009537;28;20042;-86
2022/05/15 03:25:44;;;;;;;28.00;7.65;;;8.80;99.90;;;;;;5004741;28;20046;-86
2022/05/15 03:28:10;;;;;;;30.58;7.68;;;8.80;99.90;;;;;;4982980;28;20471;-86
2022/05/15 03:30:40;;;;;;;25.92;7.15;;;8.80;99.90;;;;;;4999284;28;20050;-86
2022/05/15 03:33:08;;;;;;;26.27;7.90;;;8.90;99.90;;;;;;4982811;28;20085;-86
2022/05/15 03:35:34;;;;;;;24.35;7.70;;;9.10;99.90;;;;;;4998806;28;20068;-86
2022/05/15 03:38:01;;;;;;;19.70;6.68;;;8.90;99.90;;;;;;5016456;28;20034;-86
2022/05/15 03:40:27;;;;;;;28.90;7.65;;;9.10;99.90;;;;;;4982567;28;20116;-86
2022/05/15 03:42:53;;;;;;;22.67;6.93;;;9.00;99.90;;;;;;4998565;28;20041;-86
2022/05/15 03:45:19;;;;;;;24.13;7.47;;;9.00;99.90;;;;;;4998798;28;20104;-86
2022/05/15 03:47:47;;;;;;;22.25;6.90;;;9.00;99.90;;;;;;4998580;28;20077;-86
2022/05/15 03:50:14;;;;;;;24.92;7.05;;;9.00;99.90;;;;;;4998817;28;20153;-86
2022/05/15 03:52:40;;;;;;;23.48;6.88;;;9.00;99.90;;;;;;4997840;28;20544;-86
2022/05/15 03:55:07;;;;;;;20.20;6.80;;;9.00;99.90;;;;;;5016003;28;20050;-86
2022/05/15 03:57:33;;;;;;;24.65;6.57;;;9.10;99.90;;;;;;4998248;28;20100;-86
2022/05/15 03:59:58;;;;;;;25.25;6.90;;;9.10;99.90;;;;;;4998561;28;20093;-86
2022/05/15 04:02:25;;;;;;;21.08;6.85;;;9.10;99.90;;;;;;4998603;28;20042;-86
2022/05/15 04:04:51;;;;;;;21.17;6.90;;;9.20;99.90;;;;;;4998049;28;20096;-86
2022/05/15 04:07:17;;;;;;;19.98;6.07;;;9.30;99.90;;;;;;4998041;28;20097;-86
2022/05/15 04:09:42;;;;;;;22.02;6.57;;;9.30;99.90;;;;;;4998238;28;20088;-86
2022/05/15 04:12:09;;;;;;;17.35;6.72;;;9.30;99.90;;;;;;4998620;28;20053;-86
2022/05/15 04:14:35;;;;;;;26.63;7.22;;;9.30;99.90;;;;;;4997924;28;20143;-86
2022/05/15 04:17:01;;;;;;;21.75;6.05;;;9.70;99.90;;;;;;4998222;28;20084;-86
2022/05/15 04:19:26;;;;;;;22.80;5.78;;;9.30;99.90;;;;;;4998431;28;20057;-86
2022/05/15 04:21:52;;;;;;;17.73;6.30;;;9.40;99.90;;;;;;4998110;28;20130;-86
2022/05/15 04:24:19;;;;;;;24.83;6.68;;;9.40;99.90;;;;;;4998380;28;20407;-86
2022/05/15 04:26:49;;;;;;;25.98;6.55;;;9.40;99.90;;;;;;4997980;28;20125;-86
2022/05/15 04:29:15;;;;;;;19.00;6.40;;;9.40;99.90;;;;;;4981775;28;20080;-86
2022/05/15 04:31:41;;;;;;;25.10;6.50;;;9.40;99.90;;;;;;5015599;28;20547;-86
2022/05/15 04:34:06;;;;;;;25.05;6.45;;;9.50;99.90;;;;;;4997686;28;20046;-85
2022/05/15 04:36:33;;;;;;;19.98;5.97;;;9.50;99.90;;;;;;4997684;28;20129;-86
2022/05/15 04:39:01;;;;;;;18.83;6.47;;;9.70;99.90;;;;;;4981620;28;20033;-86
2022/05/15 04:41:27;;;;;;;25.55;7.05;;;9.60;99.90;;;;;;5015040;28;20383;-87
2022/05/15 04:43:53;;;;;;;22.65;7.00;;;10.20;99.90;;;;;;4997708;28;20079;-86
2022/05/15 04:46:19;;;;;;;19.73;6.85;;;9.60;99.90;;;;;;4997545;28;20092;-86
2022/05/15 04:48:44;;;;;;;20.70;6.93;;;9.70;99.90;;;;;;4997467;28;20106;-86
2022/05/15 04:51:10;;;;;;;21.17;6.43;;;9.70;99.90;;;;;;4997424;28;20085;-86
2022/05/15 04:53:36;;;;;;;21.90;6.22;;;9.80;99.90;;;;;;4981314;28;20038;-86
2022/05/15 04:56:02;;;;;;;20.33;6.78;;;10.10;99.90;;;;;;4997664;28;20092;-86
2022/05/15 04:58:28;;;;;;;24.60;5.70;;;9.90;99.90;;;;;;5014855;28;20115;-86
2022/05/15 05:00:54;;;;;;;21.45;6.07;;;10.00;99.90;;;;;;4981534;28;20046;-86
2022/05/15 05:03:20;;;;;;;24.70;6.20;;;10.20;99.90;;;;;;4980095;28;20092;-86
2022/05/15 05:05:46;;;;;;;20.33;5.72;;;10.60;99.90;;;;;;4997155;28;20057;-86
2022/05/15 05:08:12;;;;;;;20.38;6.60;;;10.20;99.90;;;;;;4997326;28;20130;-86
2022/05/15 05:10:39;;;;;;;19.42;5.85;;;10.20;99.90;;;;;;5014812;28;20044;-85
2022/05/15 05:13:05;;;;;;;22.23;6.63;;;10.50;99.90;;;;;;4997113;28;20050;-86
2022/05/15 05:15:31;;;;;;;24.48;6.50;;;10.40;99.90;;;;;;4996895;28;20056;-87
2022/05/15 05:17:57;;;;;;;20.52;6.32;;;11.10;99.90;;;;;;4997186;28;20038;-86
2022/05/15 05:20:23;;;;;;;23.65;6.65;;;10.60;99.90;;;;;;4997317;28;20045;-86
2022/05/15 05:22:49;;;;;;;21.63;6.03;;;10.70;99.90;;;;;;4981249;28;20121;-86
2022/05/15 05:25:16;;;;;;;26.42;5.97;;;10.80;99.90;;;;;;4997407;28;20504;-86
2022/05/15 05:27:42;;;;;;;26.25;6.25;;;10.90;99.90;;;;;;4996865;28;20050;-86
2022/05/15 05:30:17;;;;;;;19.25;5.60;;;10.90;99.90;;;;;;4996656;28;20046;-86
2022/05/15 05:32:43;;;;;;;24.67;5.63;;;11.00;99.90;;;;;;4996796;28;20054;-86
2022/05/15 05:35:11;;;;;;;27.42;6.55;;;11.20;99.90;;;;;;4996553;28;20313;-86
2022/05/15 05:37:36;;;;;;;21.02;5.70;;;11.30;99.90;;;;;;4986258;28;20512;-86
2022/05/15 05:40:03;;;;;;;23.33;5.45;;;11.30;99.90;;;;;;5001799;28;20042;-86
2022/05/15 05:42:28;;;;;;;19.92;4.50;;;11.50;99.90;;;;;;5014279;28;20054;-86
2022/05/15 05:44:54;;;;;;;18.27;5.10;;;11.60;99.90;;;;;;4980292;28;20088;-86
2022/05/15 05:47:25;;;;;;;24.35;4.88;;;11.80;99.90;;;;;;5014051;28;20092;-85
2022/05/15 05:49:50;;;;;;;21.52;5.30;;;12.30;99.90;;;;;;4996566;28;20046;-87
2022/05/15 05:52:16;;;;;;;24.25;5.22;;;12.10;99.90;;;;;;5014117;28;20038;-86
2022/05/15 05:54:42;;;;;;;18.63;4.38;;;12.00;99.90;;;;;;5014043;28;20061;-86
2022/05/15 05:57:07;;;;;;;19.02;4.38;;;12.10;99.90;;;;;;4996520;28;20053;-86
2022/05/15 05:59:33;;;;;;;20.65;4.40;;;12.70;99.90;;;;;;5013871;28;20413;-86
2022/05/15 06:01:59;;;;;;;25.40;4.75;;;12.50;99.90;;;;;;4996318;28;20050;-86
2022/05/15 06:04:40;;;;;;;25.92;5.60;;;12.40;99.90;;;;;;4992821;28;20059;-86
2022/05/15 06:07:08;;;;;;;22.42;6.03;;;12.50;99.90;;;;;;4992907;28;20050;-86
2022/05/15 06:09:37;;;;;;;19.50;5.25;;;12.50;99.90;;;;;;4993138;28;20038;-85
2022/05/15 06:12:04;;;;;;;18.10;4.55;;;12.70;99.90;;;;;;4976778;28;20501;-86
2022/05/15 06:14:29;;;;;;;20.25;5.80;;;12.70;99.90;;;;;;4977387;28;20050;-86
2022/05/15 06:16:55;;;;;;;20.45;5.65;;;13.40;99.90;;;;;;4980784;28;20046;-87
2022/05/15 06:19:20;;;;;;;20.00;5.47;;;12.90;99.90;;;;;;4980958;28;20038;-84
2022/05/15 06:21:46;;;;;;;20.65;4.75;;;13.10;99.90;;;;;;4998187;28;20042;-85
2022/05/15 06:24:12;;;;;;;17.40;4.88;;;13.10;99.90;;;;;;4997153;28;20054;-87
2022/05/15 06:26:37;;;;;;;20.42;5.10;;;13.40;99.90;;;;;;4996831;28;20136;-86
2022/05/15 06:29:03;;;;;;;14.40;4.60;;;13.30;99.90;;;;;;4980655;28;20039;-86
2022/05/15 06:31:28;;;;;;;23.02;5.47;;;13.40;99.90;;;;;;4996720;28;20046;-85
2022/05/15 06:33:54;;;;;;;16.92;4.32;;;13.50;99.90;;;;;;5002535;28;20046;-86
2022/05/15 06:36:20;;;;;;;14.75;4.28;;;13.60;99.90;;;;;;4999687;28;20047;-86
2022/05/15 06:38:45;;;;;;;17.25;4.43;;;13.70;99.90;;;;;;5002939;28;20394;-87
2022/05/15 06:41:11;;;;;;;18.00;4.38;;;13.80;99.90;;;;;;4999524;28;20050;-86
2022/05/15 06:43:37;;;;;;;21.02;4.93;;;13.90;99.90;;;;;;4998695;28;20038;-86
2022/05/15 06:46:03;;;;;;;20.48;5.07;;;14.20;99.90;;;;;;4997137;28;20046;-86
2022/05/15 06:48:29;;;;;;;18.13;4.68;;;14.30;99.90;;;;;;4996638;28;20486;-86
2022/05/15 06:50:55;;;;;;;19.52;5.32;;;14.30;99.90;;;;;;4996662;28;20108;-86
2022/05/15 06:53:21;;;;;;;13.40;4.13;;;14.30;99.90;;;;;;4997834;28;20053;-87
2022/05/15 06:58:47;;;;;;;14.05;3.88;;;14.50;99.90;;;;;;4921860;29;20143;-86
2022/05/15 07:01:13;;;;;;;13.73;3.88;;;14.60;99.90;;;;;;4905831;29;20142;-86
2022/05/15 07:03:38;;;;;;;14.13;3.97;;;14.70;99.90;;;;;;4921505;29;20043;-86
2022/05/15 07:06:04;;;;;;;18.02;4.90;;;14.80;99.90;;;;;;4921281;29;20055;-86
2022/05/15 07:08:31;;;;;;;16.67;4.70;;;15.00;99.90;;;;;;4905713;29;20055;-86
2022/05/15 07:10:56;;;;;;;15.13;3.90;;;15.10;99.90;;;;;;4921308;29;20051;-86
2022/05/15 07:13:22;;;;;;;13.00;4.00;;;15.20;99.90;;;;;;4921311;29;20060;-86
2022/05/15 07:15:48;;;;;;;14.05;3.83;;;15.20;99.90;;;;;;4921192;29;20106;-86
2022/05/15 07:18:14;;;;;;;14.32;3.42;;;15.20;99.90;;;;;;4921271;29;20139;-86
2022/05/15 07:20:40;;;;;;;15.43;4.35;;;15.50;99.90;;;;;;4921209;29;20134;-86
2022/05/15 07:23:06;;;;;;;13.30;3.90;;;15.60;99.90;;;;;;4905664;29;20428;-86
2022/05/15 07:25:32;;;;;;;15.73;3.72;;;15.70;99.90;;;;;;4920815;29;20051;-87
2022/05/15 07:27:57;;;;;;;14.63;3.92;;;15.80;99.90;;;;;;4920178;29;20542;-87
2022/05/15 07:30:23;;;;;;;10.98;3.10;;;15.80;99.90;;;;;;4921053;29;20054;-87
2022/05/15 07:32:49;;;;;;;17.17;3.80;;;16.00;99.90;;;;;;4959206;28;20058;-86
2022/05/15 07:35:16;;;;;;;14.57;3.80;;;16.00;99.90;;;;;;4995556;28;20052;-86
2022/05/15 07:37:41;;;;;;;14.88;4.13;;;16.10;99.90;;;;;;4995623;28;20038;-86
2022/05/15 07:40:08;;;;;;;11.30;3.72;;;16.30;99.90;;;;;;4996690;28;20058;-87
2022/05/15 07:42:35;;;;;;;13.98;3.72;;;16.30;99.90;;;;;;4995429;28;20085;-86
2022/05/15 07:45:00;;;;;;;12.82;3.70;;;16.40;99.90;;;;;;4995466;28;20054;-86
2022/05/15 07:47:26;;;;;;;11.77;3.83;;;16.50;99.90;;;;;;4995444;28;20046;-87
2022/05/15 07:49:52;;;;;;;16.67;4.07;;;16.60;99.90;;;;;;4995268;28;20050;-87
2022/05/15 07:52:18;;;;;;;16.33;3.58;;;16.90;99.90;;;;;;4998297;28;20042;-87
2022/05/15 07:54:44;;;;;;;15.93;3.70;;;16.90;99.90;;;;;;4995275;28;20065;-87
2022/05/15 07:57:10;;;;;;;12.18;3.58;;;17.10;99.90;;;;;;4995213;28;20043;-85
2022/05/15 07:59:35;;;;;;;13.25;3.20;;;17.20;99.90;;;;;;4996648;28;20046;-84
2022/05/15 08:02:06;;;;;;;13.60;3.30;;;17.20;99.90;;;;;;4995180;28;20039;-85
2022/05/15 08:08:00;;;;;;;13.20;3.00;;;17.40;99.90;;;;;;4979041;28;20057;-85
2022/05/15 08:10:03;;;;;;;13.18;3.08;;;17.50;99.90;;;;;;4995148;28;20482;-85
2022/05/15 08:12:29;;;;;;;12.05;3.10;;;17.60;99.90;;;;;;4995193;28;20417;-85
2022/05/15 08:14:55;;;;;;;17.80;3.35;;;17.70;99.90;;;;;;4994954;28;20137;-85
2022/05/15 08:17:20;;;;;;;13.38;3.05;;;17.90;99.90;;;;;;4995202;28;20497;-85
2022/05/15 08:25:19;;;;;;;14.35;3.60;;;18.30;99.90;;;;;;4994624;28;20056;-85
2022/05/15 08:27:45;;;;;;;15.38;3.67;;;18.30;99.90;;;;;;4994746;28;20042;-86
2022/05/15 08:30:11;;;;;;;14.80;3.45;;;18.50;99.90;;;;;;4994861;28;20057;-85
2022/05/15 08:32:36;;;;;;;20.55;3.50;;;18.70;99.90;;;;;;4994760;28;20065;-85
2022/05/15 08:35:03;;;;;;;15.55;4.18;;;18.80;99.90;;;;;;4994382;28;20038;-85
2022/05/15 08:37:30;;;;;;;14.50;3.75;;;18.90;99.90;;;;;;4978236;28;20053;-86
2022/05/15 08:39:56;;;;;;;14.77;3.30;;;19.10;99.90;;;;;;4994485;28;20053;-86
2022/05/15 08:42:37;;;;;;;11.10;3.20;;;19.20;99.90;;;;;;4994524;28;20406;-86
2022/05/15 08:45:04;;;;;;;15.70;4.00;;;19.30;99.90;;;;;;4994809;28;20398;-85
2022/05/15 08:47:42;;;;;;;10.70;2.90;;;19.30;99.90;;;;;;4995385;28;20061;-85
2022/05/15 08:50:24;;;;;;;12.35;3.15;;;19.40;99.90;;;;;;4994287;28;20038;-86
2022/05/15 08:52:50;;;;;;;17.73;3.60;;;19.40;99.90;;;;;;4994523;28;20047;-86
2022/05/15 08:55:22;;;;;;;14.57;3.85;;;19.60;99.90;;;;;;4977994;28;20069;-86
2022/05/15 08:58:00;;;;;;;12.60;2.90;;;19.50;99.90;;;;;;4996956;28;20046;-85
2022/05/15 09:00:40;;;;;;;13.20;4.03;;;19.60;99.90;;;;;;4997226;28;20050;-86
2022/05/15 09:03:17;;;;;;;14.27;3.53;;;19.70;99.90;;;;;;4982971;28;20046;-86
2022/05/15 09:06:20;;;;;;;11.82;3.33;;;19.80;99.90;;;;;;5001541;28;20065;-85
2022/05/15 09:09:13;;;;;;;12.52;3.53;;;19.80;99.90;;;;;;5010838;28;20050;-86
2022/05/15 09:12:16;;;;;;;11.25;3.17;;;19.90;99.90;;;;;;4994862;28;20053;-86
2022/05/15 09:15:04;;;;;;;12.70;3.78;;;20.00;99.90;;;;;;4979324;28;20046;-85
2022/05/15 09:17:43;;;;;;;11.68;3.20;;;20.20;99.90;;;;;;4977735;28;20129;-85
2022/05/15 09:20:14;;;;;;;12.00;3.63;;;20.30;99.90;;;;;;4994245;28;20376;-86
2022/05/15 09:22:45;;;;;;;12.55;3.05;;;20.30;99.90;;;;;;4993399;28;20125;-86
2022/05/15 09:25:23;;;;;;;14.23;3.75;;;20.40;99.90;;;;;;4993672;28;20042;-86
2022/05/15 09:28:03;;;;;;;11.45;3.00;;;20.50;99.90;;;;;;4993508;28;20536;-85
2022/05/15 09:30:42;;;;;;;12.13;3.60;;;20.60;99.90;;;;;;4993801;28;20050;-86
2022/05/15 09:33:21;;;;;;;12.35;3.60;;;20.70;99.90;;;;;;4993968;28;20042;-86
2022/05/15 09:35:47;;;;;;;12.68;3.70;;;20.80;99.90;;;;;;4993193;28;20107;-85
2022/05/15 09:38:27;;;;;;;13.18;3.10;;;20.70;99.90;;;;;;4993700;28;20417;-86
2022/05/15 09:43:50;;;;;;;12.23;3.17;;;20.70;99.90;;;;;;4993271;28;20053;-86
2022/05/15 09:46:18;;;;;;;16.73;3.47;;;20.90;99.90;;;;;;4993571;28;20046;-87
2022/05/15 09:48:50;;;;;;;13.13;2.92;;;20.90;99.90;;;;;;4993969;28;20047;-87
2022/05/15 09:51:28;;;;;;;13.52;3.20;;;21.10;99.90;;;;;;4993041;28;20390;-86
2022/05/15 09:53:55;;;;;;;9.70;3.60;;;21.20;99.90;;;;;;4993058;28;20053;-87
2022/05/15 09:56:21;;;;;;;10.38;3.08;;;21.20;99.90;;;;;;4993123;28;20501;-86
2022/05/15 09:58:57;;;;;;;13.80;3.40;;;21.10;99.90;;;;;;4993324;28;20488;-87
2022/05/15 10:01:33;;;;;;;11.02;2.83;;;21.30;99.90;;;;;;4993236;28;20050;-86
2022/05/15 10:03:59;;;;;;;12.50;3.80;;;21.50;99.90;;;;;;4977060;28;20510;-86
2022/05/15 10:06:31;;;;;;;12.07;3.22;;;21.50;99.90;;;;;;4995959;28;20117;-86
2022/05/15 10:09:11;;;;;;;12.40;3.40;;;21.60;99.90;;;;;;4996211;28;20460;-87
2022/05/15 10:11:41;;;;;;;12.18;3.22;;;21.80;99.90;;;;;;4993197;28;20046;-87
2022/05/15 10:14:14;;;;;;;13.07;3.42;;;21.70;99.90;;;;;;4993088;28;20508;-85
2022/05/15 10:16:49;;;;;;;14.13;3.13;;;21.80;99.90;;;;;;4993365;28;20042;-86
2022/05/15 10:19:34;;;;;;;12.05;3.50;;;22.00;99.90;;;;;;4993128;28;20128;-87
2022/05/15 10:22:30;;;;;;;11.77;3.30;;;22.10;99.90;;;;;;4992830;28;20050;-86
2022/05/15 10:25:00;;;;;;;11.18;3.58;;;22.20;99.90;;;;;;4996006;28;20051;-86
2022/05/15 10:27:31;;;;;;;12.10;3.50;;;22.10;99.90;;;;;;4976540;28;20048;-86
2022/05/15 10:30:22;;;;;;;11.90;3.60;;;22.20;99.90;;;;;;4993144;28;20389;-86
2022/05/15 10:33:05;;;;;;;13.90;3.58;;;22.40;99.90;;;;;;4976685;28;20081;-86
2022/05/15 10:35:49;;;;;;;13.05;3.50;;;22.60;99.90;;;;;;4976516;28;20050;-86
2022/05/15 10:38:24;;;;;;;13.68;3.53;;;22.70;99.90;;;;;;4976749;28;20054;-85
2022/05/15 10:41:09;;;;;;;15.05;3.13;;;22.90;99.90;;;;;;4992944;28;20403;-86
2022/05/15 10:43:51;;;;;;;13.33;3.47;;;22.90;99.90;;;;;;4976689;28;20041;-86
2022/05/15 10:46:26;;;;;;;11.88;3.35;;;22.90;99.90;;;;;;4993607;28;20076;-85
2022/05/15 10:49:03;;;;;;;12.35;3.25;;;23.00;99.90;;;;;;4977031;28;20046;-85
2022/05/15 10:51:44;;;;;;;11.35;3.03;;;23.10;99.90;;;;;;4976416;28;20054;-86
2022/05/15 10:57:50;;;;;;;15.10;3.42;;;23.20;99.90;;;;;;4936960;29;20240;-86
2022/05/15 11:00:19;;;;;;;13.60;3.70;;;23.30;99.90;;;;;;4937149;28;20051;-86
2022/05/15 11:03:21;;;;;;;11.40;3.17;;;23.30;99.90;;;;;;4924720;29;20207;-86
2022/05/15 11:06:22;;;;;;;10.32;3.47;;;23.40;99.90;;;;;;4846746;29;20483;-87
2022/05/15 11:09:08;;;;;;;12.30;2.97;;;23.60;99.90;;;;;;4828658;29;20454;-86
2022/05/15 11:11:48;;;;;;;12.80;3.67;;;23.60;99.90;;;;;;4828810;29;20050;-85
2022/05/15 11:14:25;;;;;;;11.38;3.30;;;23.50;99.80;;;;;;4828290;29;20069;-86
2022/05/15 11:17:00;;;;;;;12.00;3.30;;;23.30;99.80;;;;;;4828200;29;20419;-86
2022/05/15 11:19:46;;;;;;;11.80;3.10;;;23.30;99.60;;;;;;4813292;29;20062;-86
2022/05/15 11:22:20;;;;;;;11.07;3.03;;;23.30;99.30;;;;;;4829814;29;20069;-86
2022/05/15 11:25:19;;;;;;;12.27;3.47;;;23.40;99.50;;;;;;4813211;29;20053;-86
2022/05/15 11:27:55;;;;;;;11.57;3.03;;;23.50;99.60;;;;;;4828404;29;20388;-87
2022/05/15 11:30:29;;;;;;;9.48;3.03;;;23.40;99.20;;;;;;4828283;29;20544;-86
2022/05/15 11:32:55;;;;;;;14.10;3.20;;;23.50;99.20;;;;;;4812893;29;20053;-86
2022/05/15 11:35:20;;;;;;;12.85;3.63;;;23.50;98.70;;;;;;4812894;29;20057;-86
2022/05/15 11:37:56;;;;;;;10.65;3.22;;;23.70;98.60;;;;;;4813007;29;20514;-86
2022/05/15 11:40:45;;;;;;;12.65;3.72;;;23.80;95.40;;;;;;4828147;29;20133;-86
2022/05/15 11:43:29;;;;;;;11.13;3.20;;;24.10;97.70;;;;;;4896478;29;20051;-86
2022/05/15 11:45:59;;;;;;;10.70;2.78;;;24.20;97.50;;;;;;4973579;28;20528;-86
2022/05/15 11:48:53;;;;;;;9.73;3.58;;;24.40;97.00;;;;;;4979314;28;20043;-86
2022/05/15 11:51:29;;;;;;;11.75;3.28;;;24.70;97.80;;;;;;4973430;28;20055;-84
2022/05/15 11:53:57;;;;;;;10.90;3.45;;;24.70;97.20;;;;;;4979920;28;20049;-86
2022/05/15 11:56:28;;;;;;;11.15;3.20;;;24.90;97.00;;;;;;4995219;28;20050;-86
2022/05/15 11:59:27;;;;;;;13.35;3.17;;;25.10;97.20;;;;;;4979208;28;20516;-86
2022/05/15 12:01:58;;;;;;;12.18;3.00;;;25.20;97.20;;;;;;4920521;28;20059;-86
2022/05/15 12:04:33;;;;;;;15.05;3.33;;;25.30;96.10;;;;;;4920814;29;20452;-86
2022/05/15 12:06:59;;;;;;;8.15;2.75;;;25.30;94.90;;;;;;4920395;29;20158;-87
2022/05/15 12:09:26;;;;;;;11.00;3.25;;;25.10;94.30;;;;;;4904804;29;20512;-86
2022/05/15 12:11:57;;;;;;;11.27;3.08;;;25.20;94.50;;;;;;4920023;28;20096;-86
2022/05/15 12:14:32;;;;;;;9.52;3.17;;;25.30;93.60;;;;;;4920102;29;20087;-86
2022/05/15 12:17:25;;;;;;;9.38;2.70;;;25.20;92.40;;;;;;4920004;29;20043;-86
2022/05/15 12:19:58;;;;;;;9.35;3.00;;;25.10;93.20;;;;;;4920438;29;20404;-86
2022/05/15 12:22:23;;;;;;;12.10;3.13;;;25.10;92.10;;;;;;4904564;29;20115;-86
2022/05/15 12:24:52;;;;;;;8.48;2.90;;;25.30;93.50;;;;;;4907694;29;20078;-86
2022/05/15 12:27:22;;;;;;;9.63;2.97;;;25.40;92.40;;;;;;4911545;29;20167;-86
2022/05/15 12:30:18;;;;;;;12.20;3.20;;;25.50;91.50;;;;;;4920353;29;20046;-87
2022/05/15 12:32:54;;;;;;;8.40;2.95;;;25.70;90.90;;;;;;4921428;29;20055;-86
2022/05/15 12:35:31;;;;;;;9.52;2.72;;;25.90;91.70;;;;;;4904452;29;20114;-86
2022/05/15 12:38:16;;;;;;;10.00;3.28;;;26.00;89.70;;;;;;4947923;28;20050;-86
2022/05/15 12:41:08;;;;;;;9.75;3.25;;;26.00;91.50;;;;;;4994373;28;20096;-86
2022/05/15 12:43:44;;;;;;;8.70;2.70;;;26.00;90.10;;;;;;4994605;28;20047;-85
2022/05/15 12:46:22;;;;;;;10.07;2.70;;;25.90;84.50;;;;;;4994336;28;20050;-86
2022/05/15 12:48:48;;;;;;;8.70;2.60;;;26.00;86.80;;;;;;4994339;28;20081;-86
2022/05/15 12:51:16;;;;;;;10.98;2.97;;;26.10;85.50;;;;;;4994053;28;20463;-87
2022/05/15 12:53:48;;;;;;;8.68;2.95;;;26.20;83.20;;;;;;4994144;28;20054;-86
2022/05/15 12:56:34;;;;;;;11.15;2.80;;;26.30;83.10;;;;;;4994066;28;20046;-86
2022/05/15 12:59:18;;;;;;;9.55;2.83;;;26.40;83.10;;;;;;4977871;28;20034;-86
2022/05/15 13:01:45;;;;;;;10.45;2.88;;;26.50;83.00;;;;;;4994017;28;20101;-86
2022/05/15 13:04:21;;;;;;;14.48;3.10;;;26.40;84.60;;;;;;4994008;28;20043;-85
2022/05/15 13:06:56;;;;;;;8.77;2.85;;;26.50;80.60;;;;;;4993644;28;20059;-86
2022/05/15 13:09:30;;;;;;;9.88;2.75;;;26.50;82.60;;;;;;4994344;28;20046;-86
2022/05/15 13:12:00;;;;;;;8.20;2.58;;;26.70;80.10;;;;;;4993915;28;20478;-86
2022/05/15 13:14:34;;;;;;;10.18;2.60;;;26.50;79.40;;;;;;4977666;28;20046;-85
2022/05/15 13:17:04;;;;;;;9.35;2.85;;;26.70;78.60;;;;;;4995969;28;20047;-86